This is the latest recevied weather packets stored in our database for station/object SV2BZQ-2. If no packets are shown the sender has not sent any weather packets the latest 10 day(s).
| Time | Temp. | Humidity | Pressure | Rain* | Wind** | Luminosity | Snow |
|---|---|---|---|---|---|---|---|
| 1778419917 | 26.67° C | 61% | 1011.6 hPa | 0 mm | - | 225 W/m² | - |
| 1778419833 | 26.67° C | 61% | 1011.6 hPa | 0 mm | - | 271 W/m² | - |
| 1778419711 | 26.67° C | 61% | 1011.5 hPa | 0 mm | - | 325 W/m² | - |
| 1778419620 | 26.67° C | 61% | 1011.6 hPa | 0 mm | - | 343 W/m² | - |
| 1778419547 | 26.67° C | 61% | 1011.6 hPa | 0 mm | - | 355 W/m² | - |
| 1778419303 | 26.67° C | 60% | 1011.7 hPa | 0 mm | - | 360 W/m² | - |
| 1778419178 | 26.67° C | 61% | 1011.7 hPa | 0 mm | - | 396 W/m² | - |
| 1778419067 | 26.67° C | 61% | 1011.7 hPa | 0 mm | - | 476 W/m² | - |
| 1778418939 | 26.67° C | 60% | 1011.7 hPa | 0 mm | - | 350 W/m² | - |
| 1778418823 | 26.67° C | 61% | 1011.7 hPa | 0 mm | - | 359 W/m² | - |
| 1778418698 | 26.67° C | 61% | 1011.8 hPa | 0 mm | - | 271 W/m² | - |
| 1778418591 | 26.67° C | 61% | 1011.8 hPa | 0 mm | - | 262 W/m² | - |
| 1778418466 | 26.67° C | 61% | 1011.9 hPa | 0 mm | - | 309 W/m² | - |
| 1778418333 | 26.67° C | 61% | 1011.9 hPa | 0 mm | - | 309 W/m² | - |
| 1778418223 | 26.67° C | 61% | 1011.9 hPa | 0 mm | - | 309 W/m² | - |
| 1778418118 | 26.67° C | 61% | 1011.9 hPa | 0 mm | - | 309 W/m² | - |
| 1778418035 | 26.67° C | 61% | 1011.9 hPa | 0 mm | - | 364 W/m² | - |
| 1778417903 | 26.67° C | 61% | 1011.9 hPa | 0 mm | - | 297 W/m² | - |
| 1778417742 | 26.67° C | 61% | 1011.9 hPa | 0 mm | - | 297 W/m² | - |
| 1778417681 | 19.44° C | 88% | 1013.5 hPa | 0 mm | - | 0 W/m² | - |
| 1778417613 | 26.67° C | 61% | 1012 hPa | 0 mm | - | 294 W/m² | - |
| 1778417492 | 26.67° C | 60% | 1012 hPa | 0 mm | - | 283 W/m² | - |
| 1778417397 | 26.67° C | 60% | 1012.1 hPa | 0 mm | - | 281 W/m² | - |
| 1778417289 | 26.67° C | 60% | 1012.1 hPa | 0 mm | - | 269 W/m² | - |
| 1778417191 | 26.67° C | 60% | 1012 hPa | 0 mm | - | 255 W/m² | - |
* Rain latest hour (hover to see other rain measurements)
** Current wind speed in m/s (hover to see current wind gust speed)